ENHV/HVG METAR and TAF weather

Enter ICAO airport designator
Station Type Date Time Source
ENHV METAR 2019/04/25 21:20 UTC NOAA

ENHV 252120Z VRB01KT CAVOK 03/02 Q1021


Station Type Date Time Source
ENHV Decoded METAR 2019/04/25 21:20 UTC NOAA

Honningsvag / Valan, Norway (ENHV) 71-01N 025-59E 14M
Apr 25, 2019 - 05:20 PM EDT / 2019.04.25 2120 UTC
Wind: Variable at 1 MPH (1 KT):0
Visibility: greater than 7 mile(s):0
Temperature: 37 F (3 C)
Dew Point: 35 F (2 C)
Relative Humidity: 93%
Pressure (altimeter): 30.15 in. Hg (1021 hPa)
ob: ENHV 252120Z VRB01KT CAVOK 03/02 Q1021
cycle: 21

Station Type Date Time Source
ENHV TAF UTC NOAA

Error!

Example: see airport list